sensor_id;sensor_type;location;lat;lon;timestamp;pressure;altitude;pressure_sealevel;temperature
24714;BMP280;12820;51.580;5.010;2023-12-07T00:03:41;102000.53;;;3.88
24714;BMP280;12820;51.580;5.010;2023-12-07T00:08:43;101994.59;;;3.84
24714;BMP280;12820;51.580;5.010;2023-12-07T00:13:45;102001.13;;;3.81
24714;BMP280;12820;51.580;5.010;2023-12-07T00:18:48;102001.03;;;3.78
24714;BMP280;12820;51.580;5.010;2023-12-07T00:23:50;102005.88;;;3.73
24714;BMP280;12820;51.580;5.010;2023-12-07T00:28:52;101999.94;;;3.70
24714;BMP280;12820;51.580;5.010;2023-12-07T00:33:54;101996.47;;;3.65
24714;BMP280;12820;51.580;5.010;2023-12-07T00:38:56;101998.06;;;3.63
24714;BMP280;12820;51.580;5.010;2023-12-07T00:43:59;102005.44;;;3.60
24714;BMP280;12820;51.580;5.010;2023-12-07T00:49:01;102016.19;;;3.59
24714;BMP280;12820;51.580;5.010;2023-12-07T00:54:03;102018.59;;;3.58
24714;BMP280;12820;51.580;5.010;2023-12-07T00:59:05;102002.84;;;3.57
24714;BMP280;12820;51.580;5.010;2023-12-07T01:04:07;102012.84;;;3.59
24714;BMP280;12820;51.580;5.010;2023-12-07T01:09:10;102012.91;;;3.60
24714;BMP280;12820;51.580;5.010;2023-12-07T01:14:15;102009.59;;;3.61
24714;BMP280;12820;51.580;5.010;2023-12-07T01:19:18;102012.91;;;3.60
24714;BMP280;12820;51.580;5.010;2023-12-07T01:24:20;102011.22;;;3.59
24714;BMP280;12820;51.580;5.010;2023-12-07T01:29:22;102014.41;;;3.55
24714;BMP280;12820;51.580;5.010;2023-12-07T01:34:25;102019.25;;;3.53
24714;BMP280;12820;51.580;5.010;2023-12-07T01:39:27;102016.63;;;3.48
24714;BMP280;12820;51.580;5.010;2023-12-07T01:44:29;102036.41;;;3.45
24714;BMP280;12820;51.580;5.010;2023-12-07T01:49:32;102022.22;;;3.41
24714;BMP280;12820;51.580;5.010;2023-12-07T01:54:34;102031.19;;;3.38
24714;BMP280;12820;51.580;5.010;2023-12-07T01:59:36;102028.63;;;3.35
24714;BMP280;12820;51.580;5.010;2023-12-07T02:04:39;102030.31;;;3.36
24714;BMP280;12820;51.580;5.010;2023-12-07T02:09:42;102028.69;;;3.38
24714;BMP280;12820;51.580;5.010;2023-12-07T02:14:45;102029.69;;;3.43
24714;BMP280;12820;51.580;5.010;2023-12-07T02:19:55;102033.22;;;3.49
24714;BMP280;12820;51.580;5.010;2023-12-07T02:25:10;102035.94;;;3.56
24714;BMP280;12820;51.580;5.010;2023-12-07T02:30:13;102031.13;;;3.61
24714;BMP280;12820;51.580;5.010;2023-12-07T02:35:15;102026.28;;;3.65
24714;BMP280;12820;51.580;5.010;2023-12-07T02:40:21;102027.28;;;3.70
24714;BMP280;12820;51.580;5.010;2023-12-07T02:45:24;102038.13;;;3.72
24714;BMP280;12820;51.580;5.010;2023-12-07T02:50:27;102023.28;;;3.75
24714;BMP280;12820;51.580;5.010;2023-12-07T02:55:29;102024.19;;;3.77
24714;BMP280;12820;51.580;5.010;2023-12-07T03:00:32;102020.97;;;3.79
24714;BMP280;12820;51.580;5.010;2023-12-07T03:05:34;102029.31;;;3.81
24714;BMP280;12820;51.580;5.010;2023-12-07T03:10:36;102031.84;;;3.83
24714;BMP280;12820;51.580;5.010;2023-12-07T03:15:38;102036.06;;;3.85
24714;BMP280;12820;51.580;5.010;2023-12-07T03:20:41;102036.91;;;3.86
24714;BMP280;12820;51.580;5.010;2023-12-07T03:25:43;102034.47;;;3.87
24714;BMP280;12820;51.580;5.010;2023-12-07T03:30:45;102050.25;;;3.88
24714;BMP280;12820;51.580;5.010;2023-12-07T03:35:48;102051.13;;;3.89
24714;BMP280;12820;51.580;5.010;2023-12-07T03:40:51;102056.16;;;3.91
24714;BMP280;12820;51.580;5.010;2023-12-07T03:45:53;102061.19;;;3.92
24714;BMP280;12820;51.580;5.010;2023-12-07T03:50:55;102047.06;;;3.91
24714;BMP280;12820;51.580;5.010;2023-12-07T03:55:57;102063.69;;;3.94
24714;BMP280;12820;51.580;5.010;2023-12-07T04:00:59;102062.91;;;3.95
24714;BMP280;12820;51.580;5.010;2023-12-07T04:06:02;102069.59;;;3.96
24714;BMP280;12820;51.580;5.010;2023-12-07T04:11:04;102066.31;;;3.97
24714;BMP280;12820;51.580;5.010;2023-12-07T04:16:07;102065.53;;;3.99
24714;BMP280;12820;51.580;5.010;2023-12-07T04:21:09;102056.50;;;4.01
24714;BMP280;12820;51.580;5.010;2023-12-07T04:26:12;102067.31;;;4.03
24714;BMP280;12820;51.580;5.010;2023-12-07T04:31:14;102054.09;;;4.04
24714;BMP280;12820;51.580;5.010;2023-12-07T04:36:16;102056.63;;;4.06
24714;BMP280;12820;51.580;5.010;2023-12-07T04:41:18;102057.47;;;4.06
24714;BMP280;12820;51.580;5.010;2023-12-07T04:46:20;102042.56;;;4.06
24714;BMP280;12820;51.580;5.010;2023-12-07T04:51:23;102037.63;;;4.07
24714;BMP280;12820;51.580;5.010;2023-12-07T04:56:25;102037.66;;;4.09
24714;BMP280;12820;51.580;5.010;2023-12-07T05:01:27;102029.41;;;4.10
24714;BMP280;12820;51.580;5.010;2023-12-07T05:06:30;102019.50;;;4.11
24714;BMP280;12820;51.580;5.010;2023-12-07T05:11:33;102041.03;;;4.11
24714;BMP280;12820;51.580;5.010;2023-12-07T05:16:36;102030.25;;;4.10
24714;BMP280;12820;51.580;5.010;2023-12-07T05:21:38;102032.69;;;4.09
24714;BMP280;12820;51.580;5.010;2023-12-07T05:26:41;102042.63;;;4.09
24714;BMP280;12820;51.580;5.010;2023-12-07T05:31:43;102036.88;;;4.10
24714;BMP280;12820;51.580;5.010;2023-12-07T05:36:45;102041.03;;;4.11
24714;BMP280;12820;51.580;5.010;2023-12-07T05:41:48;102039.41;;;4.11
24714;BMP280;12820;51.580;5.010;2023-12-07T05:46:50;102034.50;;;4.14
24714;BMP280;12820;51.580;5.010;2023-12-07T05:51:52;102019.63;;;4.16
24714;BMP280;12820;51.580;5.010;2023-12-07T05:56:54;102017.22;;;4.17
24714;BMP280;12820;51.580;5.010;2023-12-07T06:01:57;102018.94;;;4.20
24714;BMP280;12820;51.580;5.010;2023-12-07T06:06:59;102016.44;;;4.20
24714;BMP280;12820;51.580;5.010;2023-12-07T06:12:01;102011.53;;;4.23
24714;BMP280;12820;51.580;5.010;2023-12-07T06:17:04;101999.19;;;4.25
24714;BMP280;12820;51.580;5.010;2023-12-07T06:22:06;102009.28;;;4.30
24714;BMP280;12820;51.580;5.010;2023-12-07T06:27:08;101996.91;;;4.31
24714;BMP280;12820;51.580;5.010;2023-12-07T06:32:11;101989.50;;;4.34
24714;BMP280;12820;51.580;5.010;2023-12-07T06:37:14;101988.72;;;4.37
24714;BMP280;12820;51.580;5.010;2023-12-07T06:42:16;101990.47;;;4.39
24714;BMP280;12820;51.580;5.010;2023-12-07T06:47:18;101975.63;;;4.42
24714;BMP280;12820;51.580;5.010;2023-12-07T06:52:20;101986.47;;;4.44
24714;BMP280;12820;51.580;5.010;2023-12-07T06:57:23;101995.72;;;4.48
24714;BMP280;12820;51.580;5.010;2023-12-07T07:02:25;101997.47;;;4.52
24714;BMP280;12820;51.580;5.010;2023-12-07T07:07:27;101999.25;;;4.56
24714;BMP280;12820;51.580;5.010;2023-12-07T07:12:33;102000.94;;;4.57
24714;BMP280;12820;51.580;5.010;2023-12-07T07:17:35;101992.75;;;4.60
24714;BMP280;12820;51.580;5.010;2023-12-07T07:22:37;101989.47;;;4.61
24714;BMP280;12820;51.580;5.010;2023-12-07T07:27:40;101983.72;;;4.64
24714;BMP280;12820;51.580;5.010;2023-12-07T07:32:42;101988.72;;;4.65
24714;BMP280;12820;51.580;5.010;2023-12-07T07:37:44;101997.09;;;4.67
24714;BMP280;12820;51.580;5.010;2023-12-07T07:42:47;102003.84;;;4.71
24714;BMP280;12820;51.580;5.010;2023-12-07T07:47:49;101996.38;;;4.71
24714;BMP280;12820;51.580;5.010;2023-12-07T07:52:51;102012.25;;;4.75
24714;BMP280;12820;51.580;5.010;2023-12-07T07:57:53;101994.81;;;4.75
24714;BMP280;12820;51.580;5.010;2023-12-07T08:02:58;101994.91;;;4.78
24714;BMP280;12820;51.580;5.010;2023-12-07T08:08:01;101999.09;;;4.80
24714;BMP280;12820;51.580;5.010;2023-12-07T08:13:03;102009.13;;;4.81
24714;BMP280;12820;51.580;5.010;2023-12-07T08:18:05;102003.34;;;4.84
24714;BMP280;12820;51.580;5.010;2023-12-07T08:23:07;102004.31;;;4.87
24714;BMP280;12820;51.580;5.010;2023-12-07T08:28:10;102015.19;;;4.91
24714;BMP280;12820;51.580;5.010;2023-12-07T08:33:12;102016.94;;;4.95
24714;BMP280;12820;51.580;5.010;2023-12-07T08:38:14;102002.97;;;4.99
24714;BMP280;12820;51.580;5.010;2023-12-07T08:43:21;102009.69;;;5.02
24714;BMP280;12820;51.580;5.010;2023-12-07T08:48:26;102002.25;;;5.03
24714;BMP280;12820;51.580;5.010;2023-12-07T08:53:29;101995.72;;;5.08
24714;BMP280;12820;51.580;5.010;2023-12-07T08:58:31;101990.03;;;5.12
24714;BMP280;12820;51.580;5.010;2023-12-07T09:03:33;101985.91;;;5.14
24714;BMP280;12820;51.580;5.010;2023-12-07T09:08:36;102003.47;;;5.18
24714;BMP280;12820;51.580;5.010;2023-12-07T09:13:38;102006.13;;;5.24
24714;BMP280;12820;51.580;5.010;2023-12-07T09:18:43;102003.81;;;5.31
24714;BMP280;12820;51.580;5.010;2023-12-07T09:24:01;101993.25;;;5.41
24714;BMP280;12820;51.580;5.010;2023-12-07T09:29:03;101988.53;;;5.50
24714;BMP280;12820;51.580;5.010;2023-12-07T09:34:05;101985.59;;;5.66
24714;BMP280;12820;51.580;5.010;2023-12-07T09:39:14;101962.75;;;5.84
24714;BMP280;12820;51.580;5.010;2023-12-07T09:44:17;101948.94;;;5.99
24714;BMP280;12820;51.580;5.010;2023-12-07T09:49:20;101945.13;;;6.14
24714;BMP280;12820;51.580;5.010;2023-12-07T09:54:23;101933.00;;;6.30
24714;BMP280;12820;51.580;5.010;2023-12-07T09:59:25;101919.09;;;6.42
24714;BMP280;12820;51.580;5.010;2023-12-07T10:04:27;101913.53;;;6.56
24714;BMP280;12820;51.580;5.010;2023-12-07T10:09:29;101902.84;;;6.65
24714;BMP280;12820;51.580;5.010;2023-12-07T10:14:35;101908.94;;;6.77
24714;BMP280;12820;51.580;5.010;2023-12-07T10:19:37;101901.78;;;6.96
24714;BMP280;12820;51.580;5.010;2023-12-07T10:24:41;101890.31;;;7.07
24714;BMP280;12820;51.580;5.010;2023-12-07T10:29:44;101888.78;;;7.16
24714;BMP280;12820;51.580;5.010;2023-12-07T10:34:47;101884.00;;;7.29
24714;BMP280;12820;51.580;5.010;2023-12-07T10:39:49;101870.81;;;7.40
24714;BMP280;12820;51.580;5.010;2023-12-07T10:44:57;101858.47;;;7.49
24714;BMP280;12820;51.580;5.010;2023-12-07T10:50:07;101843.56;;;7.58
24714;BMP280;12820;51.580;5.010;2023-12-07T10:55:17;101835.31;;;7.63
24714;BMP280;12820;51.580;5.010;2023-12-07T11:00:22;101830.38;;;7.69
24714;BMP280;12820;51.580;5.010;2023-12-07T11:05:45;101813.00;;;7.78
24714;BMP280;12820;51.580;5.010;2023-12-07T11:16:00;101797.19;;;7.83
24714;BMP280;12820;51.580;5.010;2023-12-07T11:21:02;101793.06;;;7.86
24714;BMP280;12820;51.580;5.010;2023-12-07T11:26:05;101788.97;;;7.93
24714;BMP280;12820;51.580;5.010;2023-12-07T11:31:07;101790.81;;;8.05
24714;BMP280;12820;51.580;5.010;2023-12-07T11:36:11;101774.31;;;8.23
24714;BMP280;12820;51.580;5.010;2023-12-07T11:41:14;101765.41;;;8.54
24714;BMP280;12820;51.580;5.010;2023-12-07T11:46:16;101760.66;;;8.85
24714;BMP280;12820;51.580;5.010;2023-12-07T11:51:18;101757.47;;;9.05
24714;BMP280;12820;51.580;5.010;2023-12-07T11:56:21;101745.03;;;9.25
24714;BMP280;12820;51.580;5.010;2023-12-07T12:01:24;101746.78;;;9.41
24714;BMP280;12820;51.580;5.010;2023-12-07T12:06:26;101736.75;;;9.41
24714;BMP280;12820;51.580;5.010;2023-12-07T12:11:30;101732.56;;;9.34
24714;BMP280;12820;51.580;5.010;2023-12-07T12:16:32;101724.16;;;9.26
24714;BMP280;12820;51.580;5.010;2023-12-07T12:21:36;101710.78;;;9.24
24714;BMP280;12820;51.580;5.010;2023-12-07T12:26:42;101700.75;;;9.30
24714;BMP280;12820;51.580;5.010;2023-12-07T12:31:44;101674.91;;;9.43
24714;BMP280;12820;51.580;5.010;2023-12-07T12:36:46;101652.34;;;9.56
24714;BMP280;12820;51.580;5.010;2023-12-07T12:41:54;101633.97;;;9.61
24714;BMP280;12820;51.580;5.010;2023-12-07T12:46:57;101623.06;;;9.58
24714;BMP280;12820;51.580;5.010;2023-12-07T12:51:59;101618.88;;;9.56
24714;BMP280;12820;51.580;5.010;2023-12-07T12:57:01;101606.31;;;9.51
24714;BMP280;12820;51.580;5.010;2023-12-07T13:02:04;101572.88;;;9.55
24714;BMP280;12820;51.580;5.010;2023-12-07T13:07:07;101562.00;;;9.60
24714;BMP280;12820;51.580;5.010;2023-12-07T13:12:09;101570.38;;;9.62
24714;BMP280;12820;51.580;5.010;2023-12-07T13:17:11;101572.03;;;9.63
24714;BMP280;12820;51.580;5.010;2023-12-07T13:22:13;101562.00;;;9.58
24714;BMP280;12820;51.580;5.010;2023-12-07T13:27:16;101565.31;;;9.42
24714;BMP280;12820;51.580;5.010;2023-12-07T13:32:18;101575.31;;;9.27
24714;BMP280;12820;51.580;5.010;2023-12-07T13:37:20;101563.59;;;9.18
24714;BMP280;12820;51.580;5.010;2023-12-07T13:42:24;101564.41;;;9.08
24714;BMP280;12820;51.580;5.010;2023-12-07T13:47:28;101552.66;;;9.01
24714;BMP280;12820;51.580;5.010;2023-12-07T13:52:33;101539.28;;;8.95
24714;BMP280;12820;51.580;5.010;2023-12-07T13:57:35;101526.72;;;8.89
24714;BMP280;12820;51.580;5.010;2023-12-07T14:02:37;101524.19;;;8.80
24714;BMP280;12820;51.580;5.010;2023-12-07T14:07:40;101507.47;;;8.72
24714;BMP280;12820;51.580;5.010;2023-12-07T14:12:42;101496.56;;;8.61
24714;BMP280;12820;51.580;5.010;2023-12-07T14:17:44;101470.59;;;8.51
24714;BMP280;12820;51.580;5.010;2023-12-07T14:22:55;101458.06;;;8.39
24714;BMP280;12820;51.580;5.010;2023-12-07T14:27:57;101454.66;;;8.28
24714;BMP280;12820;51.580;5.010;2023-12-07T14:33:00;101446.25;;;8.17
24714;BMP280;12820;51.580;5.010;2023-12-07T14:38:02;101452.00;;;8.06
24714;BMP280;12820;51.580;5.010;2023-12-07T14:43:04;101458.63;;;7.96
24714;BMP280;12820;51.580;5.010;2023-12-07T14:48:07;101465.22;;;7.85
24714;BMP280;12820;51.580;5.010;2023-12-07T14:53:09;101465.97;;;7.74
24714;BMP280;12820;51.580;5.010;2023-12-07T14:58:12;101470.91;;;7.63
24714;BMP280;12820;51.580;5.010;2023-12-07T15:03:15;101477.47;;;7.54
24714;BMP280;12820;51.580;5.010;2023-12-07T15:08:17;101453.22;;;7.42
24714;BMP280;12820;51.580;5.010;2023-12-07T15:13:20;101450.63;;;7.30
24714;BMP280;12820;51.580;5.010;2023-12-07T15:18:22;101447.13;;;7.16
24714;BMP280;12820;51.580;5.010;2023-12-07T15:23:24;101430.41;;;7.05
24714;BMP280;12820;51.580;5.010;2023-12-07T15:28:27;101416.94;;;6.93
24714;BMP280;12820;51.580;5.010;2023-12-07T15:33:29;101417.66;;;6.83
24714;BMP280;12820;51.580;5.010;2023-12-07T15:38:32;101403.41;;;6.73
24714;BMP280;12820;51.580;5.010;2023-12-07T15:43:34;101388.34;;;6.65
24714;BMP280;12820;51.580;5.010;2023-12-07T15:48:37;101383.25;;;6.56
24714;BMP280;12820;51.580;5.010;2023-12-07T15:53:39;101371.53;;;6.49
24714;BMP280;12820;51.580;5.010;2023-12-07T15:58:42;101358.97;;;6.42
24714;BMP280;12820;51.580;5.010;2023-12-07T16:03:44;101355.56;;;6.34
24714;BMP280;12820;51.580;5.010;2023-12-07T16:08:46;101352.19;;;6.29
24714;BMP280;12820;51.580;5.010;2023-12-07T16:13:49;101333.00;;;6.25
24714;BMP280;12820;51.580;5.010;2023-12-07T16:18:51;101318.81;;;6.20
24714;BMP280;12820;51.580;5.010;2023-12-07T16:23:54;101317.09;;;6.16
24714;BMP280;12820;51.580;5.010;2023-12-07T16:28:57;101318.72;;;6.14
24714;BMP280;12820;51.580;5.010;2023-12-07T16:33:59;101301.25;;;6.13
24714;BMP280;12820;51.580;5.010;2023-12-07T16:39:05;101299.56;;;6.10
24714;BMP280;12820;51.580;5.010;2023-12-07T16:44:10;101292.06;;;6.09
24714;BMP280;12820;51.580;5.010;2023-12-07T16:49:13;101298.69;;;6.08
24714;BMP280;12820;51.580;5.010;2023-12-07T16:54:15;101297.84;;;6.06
24714;BMP280;12820;51.580;5.010;2023-12-07T16:59:18;101289.50;;;6.04
24714;BMP280;12820;51.580;5.010;2023-12-07T17:04:20;101292.81;;;6.03
24714;BMP280;12820;51.580;5.010;2023-12-07T17:09:22;101293.63;;;6.03
24714;BMP280;12820;51.580;5.010;2023-12-07T17:14:24;101286.13;;;6.00
24714;BMP280;12820;51.580;5.010;2023-12-07T17:19:28;101276.97;;;5.97
24714;BMP280;12820;51.580;5.010;2023-12-07T17:24:39;101267.75;;;5.93
24714;BMP280;12820;51.580;5.010;2023-12-07T17:29:41;101250.25;;;5.89
24714;BMP280;12820;51.580;5.010;2023-12-07T17:34:44;101251.91;;;5.87
24714;BMP280;12820;51.580;5.010;2023-12-07T17:39:46;101242.72;;;5.85
24714;BMP280;12820;51.580;5.010;2023-12-07T17:44:49;101242.66;;;5.80
24714;BMP280;12820;51.580;5.010;2023-12-07T17:49:52;101247.63;;;5.77
24714;BMP280;12820;51.580;5.010;2023-12-07T17:54:55;101252.56;;;5.74
24714;BMP280;12820;51.580;5.010;2023-12-07T17:59:57;101250.84;;;5.70
24714;BMP280;12820;51.580;5.010;2023-12-07T18:04:59;101231.69;;;5.67
24714;BMP280;12820;51.580;5.010;2023-12-07T18:10:01;101228.34;;;5.65
24714;BMP280;12820;51.580;5.010;2023-12-07T18:15:06;101215.81;;;5.62
24714;BMP280;12820;51.580;5.010;2023-12-07T18:20:12;101231.59;;;5.61
24714;BMP280;12820;51.580;5.010;2023-12-07T18:25:14;101218.28;;;5.60
24714;BMP280;12820;51.580;5.010;2023-12-07T18:30:16;101210.00;;;5.61
24714;BMP280;12820;51.580;5.010;2023-12-07T18:35:19;101199.25;;;5.64
24714;BMP280;12820;51.580;5.010;2023-12-07T18:40:21;101192.63;;;5.66
24714;BMP280;12820;51.580;5.010;2023-12-07T18:45:23;101186.78;;;5.65
24714;BMP280;12820;51.580;5.010;2023-12-07T18:50:25;101178.53;;;5.68
24714;BMP280;12820;51.580;5.010;2023-12-07T18:55:28;101176.06;;;5.69
24714;BMP280;12820;51.580;5.010;2023-12-07T19:00:30;101165.25;;;5.70
24714;BMP280;12820;51.580;5.010;2023-12-07T19:05:34;101161.94;;;5.71
24714;BMP280;12820;51.580;5.010;2023-12-07T19:10:37;101161.09;;;5.70
24714;BMP280;12820;51.580;5.010;2023-12-07T19:15:39;101128.69;;;5.70
24714;BMP280;12820;51.580;5.010;2023-12-07T19:20:41;101094.63;;;5.72
24714;BMP280;12820;51.580;5.010;2023-12-07T19:25:44;101078.84;;;5.75
24714;BMP280;12820;51.580;5.010;2023-12-07T19:30:46;101059.75;;;5.75
24714;BMP280;12820;51.580;5.010;2023-12-07T19:35:48;101061.41;;;5.75
24714;BMP280;12820;51.580;5.010;2023-12-07T19:40:50;101046.47;;;5.76
24714;BMP280;12820;51.580;5.010;2023-12-07T19:45:53;101039.00;;;5.79
24714;BMP280;12820;51.580;5.010;2023-12-07T19:50:55;101036.50;;;5.79
24714;BMP280;12820;51.580;5.010;2023-12-07T19:55:57;101024.03;;;5.81
24714;BMP280;12820;51.580;5.010;2023-12-07T20:00:59;101008.28;;;5.83
24714;BMP280;12820;51.580;5.010;2023-12-07T20:06:02;101004.94;;;5.84
24714;BMP280;12820;51.580;5.010;2023-12-07T20:11:05;100983.34;;;5.86
24714;BMP280;12820;51.580;5.010;2023-12-07T20:16:07;100970.91;;;5.87
24714;BMP280;12820;51.580;5.010;2023-12-07T20:21:10;100956.78;;;5.89
24714;BMP280;12820;51.580;5.010;2023-12-07T20:26:12;100927.69;;;5.91
24714;BMP280;12820;51.580;5.010;2023-12-07T20:31:17;100911.91;;;5.92
24714;BMP280;12820;51.580;5.010;2023-12-07T20:36:20;100882.81;;;5.93
24714;BMP280;12820;51.580;5.010;2023-12-07T20:41:22;100852.03;;;5.94
24714;BMP280;12820;51.580;5.010;2023-12-07T20:46:24;100857.88;;;5.96
24714;BMP280;12820;51.580;5.010;2023-12-07T20:51:26;100858.72;;;5.96
24714;BMP280;12820;51.580;5.010;2023-12-07T20:56:28;100873.66;;;5.98
24714;BMP280;12820;51.580;5.010;2023-12-07T21:01:44;100877.00;;;5.98
24714;BMP280;12820;51.580;5.010;2023-12-07T21:06:46;100872.03;;;6.00
24714;BMP280;12820;51.580;5.010;2023-12-07T21:11:48;100851.25;;;6.01
24714;BMP280;12820;51.580;5.010;2023-12-07T21:16:52;100867.91;;;6.02
24714;BMP280;12820;51.580;5.010;2023-12-07T21:21:54;100861.25;;;6.02
24714;BMP280;12820;51.580;5.010;2023-12-07T21:26:56;100846.25;;;6.03
24714;BMP280;12820;51.580;5.010;2023-12-07T21:31:58;100827.16;;;6.05
24714;BMP280;12820;51.580;5.010;2023-12-07T21:37:01;100806.38;;;6.06
24714;BMP280;12820;51.580;5.010;2023-12-07T21:42:03;100789.75;;;6.07
24714;BMP280;12820;51.580;5.010;2023-12-07T21:47:06;100779.75;;;6.08
24714;BMP280;12820;51.580;5.010;2023-12-07T21:52:09;100767.31;;;6.10
24714;BMP280;12820;51.580;5.010;2023-12-07T21:57:11;100775.59;;;6.09
24714;BMP280;12820;51.580;5.010;2023-12-07T22:02:13;100808.88;;;6.09
24714;BMP280;12820;51.580;5.010;2023-12-07T22:07:15;100821.38;;;6.11
24714;BMP280;12820;51.580;5.010;2023-12-07T22:12:17;100818.84;;;6.12
24714;BMP280;12820;51.580;5.010;2023-12-07T22:17:26;100831.31;;;6.12
24714;BMP280;12820;51.580;5.010;2023-12-07T22:22:29;100819.69;;;6.14
24714;BMP280;12820;51.580;5.010;2023-12-07T22:27:31;100818.03;;;6.13
24714;BMP280;12820;51.580;5.010;2023-12-07T22:32:34;100838.00;;;6.12
24714;BMP280;12820;51.580;5.010;2023-12-07T22:37:37;100820.53;;;6.10
24714;BMP280;12820;51.580;5.010;2023-12-07T22:42:39;100860.41;;;6.07
24714;BMP280;12820;51.580;5.010;2023-12-07T22:47:41;100857.06;;;6.03
24714;BMP280;12820;51.580;5.010;2023-12-07T22:52:44;100851.25;;;6.01
24714;BMP280;12820;51.580;5.010;2023-12-07T22:57:47;100843.75;;;5.98
24714;BMP280;12820;51.580;5.010;2023-12-07T23:02:50;100828.78;;;5.92
24714;BMP280;12820;51.580;5.010;2023-12-07T23:07:52;100807.16;;;5.88
24714;BMP280;12820;51.580;5.010;2023-12-07T23:12:54;100792.19;;;5.88
24714;BMP280;12820;51.580;5.010;2023-12-07T23:17:56;100794.66;;;5.85
24714;BMP280;12820;51.580;5.010;2023-12-07T23:22:58;100781.38;;;5.83
24714;BMP280;12820;51.580;5.010;2023-12-07T23:28:01;100774.69;;;5.82
24714;BMP280;12820;51.580;5.010;2023-12-07T23:33:03;100778.84;;;5.80
24714;BMP280;12820;51.580;5.010;2023-12-07T23:38:07;100801.25;;;5.79
24714;BMP280;12820;51.580;5.010;2023-12-07T23:43:09;100801.25;;;5.79
24714;BMP280;12820;51.580;5.010;2023-12-07T23:48:11;100773.00;;;5.77
24714;BMP280;12820;51.580;5.010;2023-12-07T23:53:14;100757.19;;;5.75
24714;BMP280;12820;51.580;5.010;2023-12-07T23:58:16;100752.22;;;5.73
